createdAt,value
2023-04-18T00:02:17.196Z,26.70
2023-04-18T00:04:46.424Z,26.30
2023-04-18T00:07:16.321Z,26.60
2023-04-18T00:09:44.788Z,26.00
2023-04-18T00:12:13.221Z,26.50
2023-04-18T00:14:41.494Z,26.50
2023-04-18T00:17:10.402Z,26.30
2023-04-18T00:19:43.218Z,26.40
2023-04-18T00:22:11.631Z,26.30
2023-04-18T00:24:41.063Z,26.70
2023-04-18T00:27:09.384Z,27.40
2023-04-18T00:29:37.653Z,28.10
2023-04-18T00:32:06.317Z,27.70
2023-04-18T00:34:34.665Z,27.90
2023-04-18T00:37:04.355Z,28.30
2023-04-18T00:39:32.620Z,28.40
2023-04-18T00:42:01.251Z,28.30
2023-04-18T00:44:29.537Z,28.60
2023-04-18T00:46:57.787Z,28.70
2023-04-18T00:49:26.133Z,28.40
2023-04-18T00:51:54.830Z,28.60
2023-04-18T00:54:24.571Z,29.10
2023-04-18T00:56:52.813Z,29.20
2023-04-18T00:59:21.426Z,29.40
2023-04-18T01:01:49.781Z,29.90
2023-04-18T01:04:18.556Z,29.90
2023-04-18T01:06:47.144Z,29.70
2023-04-18T01:09:15.998Z,29.40
2023-04-18T01:11:45.677Z,29.40
2023-04-18T01:14:14.101Z,29.70
2023-04-18T01:16:44.077Z,29.30
2023-04-18T01:19:12.885Z,29.50
2023-04-18T01:21:43.843Z,28.90
2023-04-18T01:24:14.669Z,28.90
2023-04-18T01:26:44.847Z,28.90
2023-04-18T01:29:13.195Z,29.10
2023-04-18T01:31:41.874Z,29.70
2023-04-18T01:34:10.456Z,29.60
2023-04-18T01:36:39.435Z,29.60
2023-04-18T01:39:07.757Z,30.00
2023-04-18T01:41:37.504Z,29.70
2023-04-18T01:44:06.341Z,30.00
2023-04-18T01:46:34.705Z,31.00
2023-04-18T01:49:03.013Z,30.30
2023-04-18T01:51:31.359Z,30.20
2023-04-18T01:53:59.657Z,30.40
2023-04-18T01:56:27.984Z,30.00
2023-04-18T01:58:57.698Z,30.00
2023-04-18T02:01:26.089Z,30.10
2023-04-18T02:03:55.486Z,30.80
2023-04-18T02:06:23.932Z,31.10
2023-04-18T02:08:52.314Z,30.90
2023-04-18T02:11:20.713Z,31.50
2023-04-18T02:13:49.047Z,31.80
2023-04-18T02:16:18.771Z,31.80
2023-04-18T02:18:47.622Z,31.70
2023-04-18T02:21:15.890Z,31.60
2023-04-18T02:23:44.145Z,31.70
2023-04-18T02:26:12.447Z,31.90
2023-04-18T02:28:40.652Z,31.60
2023-04-18T02:31:14.493Z,31.70
2023-04-18T02:33:44.520Z,31.80
2023-04-18T02:36:13.835Z,31.80
2023-04-18T02:38:42.116Z,31.50
2023-04-18T02:41:15.006Z,31.70
2023-04-18T02:43:43.550Z,30.80
2023-04-18T02:46:11.830Z,30.30
2023-04-18T02:48:40.308Z,29.90
2023-04-18T02:51:10.788Z,30.10
2023-04-18T02:53:39.082Z,29.90
2023-04-18T02:56:08.797Z,29.90
2023-04-18T02:58:37.118Z,30.00
2023-04-18T03:01:05.642Z,29.30
2023-04-18T03:03:33.977Z,29.10
2023-04-18T03:06:02.220Z,28.80
2023-04-18T03:08:31.853Z,29.20
2023-04-18T03:11:00.207Z,29.00
2023-04-18T03:13:28.509Z,28.70
2023-04-18T03:15:56.856Z,28.60
2023-04-18T03:18:25.350Z,28.40
2023-04-18T03:20:53.650Z,28.80
2023-04-18T03:23:22.049Z,28.10
2023-04-18T03:25:51.649Z,28.10
2023-04-18T03:28:19.920Z,27.60
2023-04-18T03:30:48.451Z,27.30
2023-04-18T03:33:17.135Z,27.40
2023-04-18T03:35:45.497Z,27.20
2023-04-18T03:38:13.866Z,26.80
2023-04-18T03:40:44.318Z,27.10
2023-04-18T03:43:13.987Z,26.90
2023-04-18T03:45:42.281Z,26.70
2023-04-18T03:48:10.655Z,26.70
2023-04-18T03:50:38.967Z,26.50
2023-04-18T03:53:07.237Z,26.70
2023-04-18T03:55:35.513Z,26.90
2023-04-18T03:58:03.748Z,27.00
2023-04-18T04:00:33.629Z,27.10
2023-04-18T04:03:02.088Z,27.50
2023-04-18T04:05:30.514Z,27.50
2023-04-18T04:07:58.946Z,27.60
2023-04-18T04:10:27.238Z,27.40
2023-04-18T04:12:55.549Z,27.40
2023-04-18T04:15:23.780Z,27.70
2023-04-18T04:17:53.546Z,27.90
2023-04-18T04:20:24.750Z,28.50
2023-04-18T04:22:53.935Z,28.70
2023-04-18T04:25:23.882Z,29.20
2023-04-18T04:27:53.592Z,29.10
2023-04-18T04:30:22.245Z,29.60
2023-04-18T04:32:52.049Z,29.60
2023-04-18T04:35:20.464Z,29.60
2023-04-18T04:37:49.215Z,29.60
2023-04-18T04:40:17.602Z,29.60
2023-04-18T04:42:45.912Z,29.60
2023-04-18T04:45:14.815Z,29.60
2023-04-18T04:47:44.011Z,29.60
2023-04-18T04:50:15.749Z,29.30
2023-04-18T04:52:44.146Z,28.80
2023-04-18T04:55:12.514Z,29.00
2023-04-18T04:57:40.827Z,29.20
2023-04-18T05:00:11.170Z,29.20
2023-04-18T05:02:39.547Z,28.90
2023-04-18T05:05:08.675Z,28.80
2023-04-18T05:07:38.312Z,28.80
2023-04-18T05:10:07.478Z,28.50
2023-04-18T05:12:35.770Z,28.60
2023-04-18T05:15:04.195Z,28.70
2023-04-18T05:17:32.458Z,28.30
2023-04-18T05:20:01.073Z,27.90
2023-04-18T05:22:29.397Z,27.70
2023-04-18T05:24:59.031Z,27.60
2023-04-18T05:27:27.751Z,27.30
2023-04-18T05:29:56.112Z,26.30
2023-04-18T05:32:24.387Z,26.10
2023-04-18T05:34:52.700Z,26.20
2023-04-18T05:37:22.243Z,26.20
2023-04-18T05:39:50.532Z,26.20
2023-04-18T05:42:20.150Z,26.20
2023-04-18T05:44:48.441Z,26.70
2023-04-18T05:47:17.524Z,27.40
2023-04-18T05:49:45.808Z,28.10
2023-04-18T05:52:14.118Z,27.00
2023-04-18T05:54:42.409Z,24.70
2023-04-18T05:57:10.683Z,23.60
2023-04-18T05:59:40.382Z,22.80
2023-04-18T06:02:13.333Z,21.90
2023-04-18T06:04:42.392Z,19.50
2023-04-18T06:07:11.144Z,18.90
2023-04-18T06:09:39.414Z,18.90
2023-04-18T06:12:07.813Z,16.80
2023-04-18T06:14:36.072Z,16.70
2023-04-18T06:17:07.234Z,16.20
2023-04-18T06:19:35.519Z,15.70
2023-04-18T06:22:03.845Z,16.10
2023-04-18T06:24:32.158Z,17.70
2023-04-18T06:27:01.898Z,16.80
2023-04-18T06:29:33.252Z,13.90
2023-04-18T06:32:01.673Z,14.20
2023-04-18T06:34:31.479Z,14.00
2023-04-18T06:36:59.881Z,14.90
2023-04-18T06:39:28.888Z,14.70
2023-04-18T06:41:57.963Z,14.50
2023-04-18T06:44:26.366Z,14.40
2023-04-18T06:46:54.675Z,14.50
2023-04-18T06:49:26.352Z,12.60
2023-04-18T06:51:56.315Z,13.00
2023-04-18T06:54:24.611Z,12.70
2023-04-18T06:56:53.659Z,9.40
2023-04-18T06:59:23.312Z,11.50
2023-04-18T07:01:52.225Z,10.50
2023-04-18T07:04:20.658Z,12.60
2023-04-18T07:06:49.035Z,7.50
2023-04-18T07:09:18.687Z,5.60
2023-04-18T07:11:47.038Z,7.40
2023-04-18T07:14:15.504Z,7.50
2023-04-18T07:16:44.032Z,9.00
2023-04-18T07:19:12.304Z,6.70
2023-04-18T07:21:43.006Z,7.50
2023-04-18T07:24:11.456Z,7.50
2023-04-18T07:26:41.146Z,7.50
2023-04-18T07:29:09.388Z,6.80
2023-04-18T07:31:37.683Z,6.50
2023-04-18T07:34:06.243Z,7.70
2023-04-18T07:36:34.624Z,6.70
2023-04-18T07:39:03.634Z,6.80
2023-04-18T07:41:32.075Z,6.90
2023-04-18T07:44:01.907Z,6.70
2023-04-18T07:46:32.239Z,5.90
2023-04-18T07:49:02.125Z,6.50
2023-04-18T07:51:32.369Z,5.20
2023-04-18T07:54:00.728Z,3.80
2023-04-18T07:56:29.343Z,3.80
2023-04-18T07:58:57.641Z,3.80
2023-04-18T08:01:27.489Z,3.80
2023-04-18T08:03:57.891Z,2.10
2023-04-18T08:06:27.016Z,2.50
2023-04-18T08:08:55.364Z,3.70
2023-04-18T08:11:23.692Z,5.30
2023-04-18T08:13:51.998Z,6.00
2023-04-18T08:16:20.430Z,7.10
2023-04-18T08:18:50.239Z,6.20
2023-04-18T08:21:19.136Z,6.90
2023-04-18T08:23:47.472Z,8.90
2023-04-18T08:26:15.851Z,4.40
2023-04-18T08:28:46.281Z,4.10
2023-04-18T08:31:15.286Z,5.50
2023-04-18T08:33:43.773Z,4.50
2023-04-18T08:36:13.904Z,6.10
2023-04-18T08:38:42.277Z,6.20
2023-04-18T08:41:10.756Z,7.30
2023-04-18T08:43:39.386Z,6.20
2023-04-18T08:46:09.135Z,7.80
2023-04-18T08:48:37.991Z,8.10
2023-04-18T08:51:06.991Z,4.00
2023-04-18T08:53:36.638Z,3.90
2023-04-18T08:56:05.464Z,6.20
2023-04-18T08:58:34.911Z,1.00
2023-04-18T09:01:03.491Z,1.00
2023-04-18T09:03:41.641Z,1.00
2023-04-18T09:06:13.655Z,1.00
2023-04-18T09:08:44.524Z,1.00
2023-04-18T09:11:24.005Z,1.00
2023-04-18T09:13:53.104Z,1.00
2023-04-18T09:16:22.524Z,1.00
2023-04-18T09:19:12.078Z,1.00
2023-04-18T09:21:41.221Z,1.00
2023-04-18T09:24:21.002Z,1.00
2023-04-18T09:26:50.876Z,1.00
2023-04-18T09:29:22.352Z,1.00
2023-04-18T09:31:59.754Z,1.00
2023-04-18T09:34:28.691Z,1.00
2023-04-18T09:37:10.645Z,1.00
2023-04-18T09:39:43.073Z,1.00
2023-04-18T09:42:11.530Z,1.00
2023-04-18T09:44:39.873Z,1.00
2023-04-18T09:47:08.739Z,1.00
2023-04-18T09:49:37.004Z,1.00
2023-04-18T09:52:05.547Z,1.00
2023-04-18T09:54:33.821Z,1.00
2023-04-18T09:57:03.537Z,1.00
2023-04-18T09:59:38.996Z,1.00
2023-04-18T10:02:08.093Z,1.00
2023-04-18T10:04:37.054Z,1.00
2023-04-18T10:07:05.369Z,1.00
2023-04-18T10:09:33.794Z,1.00
2023-04-18T10:12:03.478Z,1.00
2023-04-18T10:14:31.980Z,1.00
2023-04-18T10:17:01.091Z,1.00
2023-04-18T10:19:30.706Z,1.00
2023-04-18T10:22:00.364Z,1.00
2023-04-18T10:24:53.283Z,1.00
2023-04-18T10:27:57.372Z,1.00
2023-04-18T10:30:54.746Z,1.00
2023-04-18T10:33:33.627Z,1.00
2023-04-18T10:36:20.405Z,1.00
2023-04-18T10:38:50.643Z,1.00
2023-04-18T10:41:22.329Z,1.00
2023-04-18T10:44:18.466Z,1.00
2023-04-18T10:47:23.620Z,1.00
2023-04-18T10:49:57.424Z,1.00
2023-04-18T10:52:26.341Z,1.00
2023-04-18T10:54:59.248Z,1.00
2023-04-18T10:57:38.600Z,1.00
2023-04-18T11:00:13.791Z,1.00
2023-04-18T11:02:48.583Z,1.00
2023-04-18T11:05:21.180Z,1.00
2023-04-18T11:07:49.595Z,1.00
2023-04-18T11:10:20.008Z,1.00
2023-04-18T11:12:48.482Z,1.00
2023-04-18T11:15:21.532Z,1.00
2023-04-18T11:18:00.401Z,1.00
2023-04-18T11:20:29.262Z,1.00
2023-04-18T11:22:58.745Z,1.00
2023-04-18T11:25:29.167Z,1.00
2023-04-18T11:28:00.016Z,1.00
2023-04-18T11:30:31.338Z,1.00
2023-04-18T11:32:59.731Z,1.00
2023-04-18T11:35:28.412Z,1.00
2023-04-18T11:37:56.716Z,1.00
2023-04-18T11:40:25.078Z,1.00
2023-04-18T11:42:55.279Z,1.00
2023-04-18T11:45:23.675Z,1.00
2023-04-18T11:47:57.011Z,1.00
2023-04-18T11:50:25.578Z,1.00
2023-04-18T11:52:54.815Z,1.00
2023-04-18T11:55:24.569Z,1.00
2023-04-18T11:57:53.822Z,1.00
2023-04-18T12:00:33.597Z,1.00
2023-04-18T12:03:04.583Z,1.00
2023-04-18T12:05:34.482Z,1.00
2023-04-18T12:08:10.199Z,1.00
2023-04-18T12:10:39.231Z,1.00
2023-04-18T12:13:08.657Z,1.00
2023-04-18T12:15:39.970Z,1.00
2023-04-18T12:18:09.763Z,1.00
2023-04-18T12:20:46.332Z,1.00
2023-04-18T12:23:30.850Z,1.00
2023-04-18T12:26:03.799Z,1.00
2023-04-18T12:28:32.413Z,1.00
2023-04-18T12:31:00.947Z,1.00
2023-04-18T12:33:31.766Z,1.00
2023-04-18T12:36:00.551Z,1.00
2023-04-18T12:38:28.825Z,1.00
2023-04-18T12:40:57.142Z,1.00
2023-04-18T12:43:25.734Z,1.00
2023-04-18T12:45:54.089Z,1.00
2023-04-18T12:48:22.375Z,1.00
2023-04-18T12:50:52.027Z,1.00
2023-04-18T12:53:20.350Z,1.00
2023-04-18T12:55:48.637Z,1.00
2023-04-18T12:58:18.736Z,1.00
2023-04-18T13:00:47.183Z,1.00
2023-04-18T13:03:15.584Z,1.00
2023-04-18T13:05:44.129Z,1.00
2023-04-18T13:08:17.768Z,1.00
2023-04-18T13:10:47.369Z,1.00
2023-04-18T13:13:15.740Z,1.00
2023-04-18T13:15:44.100Z,1.00
2023-04-18T13:18:12.355Z,1.00
2023-04-18T13:20:40.645Z,1.00
2023-04-18T13:23:08.989Z,1.00
2023-04-18T13:25:38.602Z,1.00
2023-04-18T13:28:07.021Z,1.00
2023-04-18T13:30:36.803Z,1.00
2023-04-18T13:33:05.307Z,1.00
2023-04-18T13:35:33.617Z,1.00
2023-04-18T13:38:01.958Z,1.00
2023-04-18T13:40:30.467Z,1.00
2023-04-18T13:43:00.151Z,1.00
2023-04-18T13:45:28.473Z,1.00
2023-04-18T13:47:56.830Z,1.00
2023-04-18T13:50:25.517Z,1.00
2023-04-18T13:52:54.693Z,1.00
2023-04-18T13:55:23.123Z,1.00
2023-04-18T13:57:51.394Z,1.00
2023-04-18T14:00:21.990Z,1.00
2023-04-18T14:02:50.881Z,1.00
2023-04-18T14:05:19.708Z,1.00
2023-04-18T14:07:48.833Z,1.00
2023-04-18T14:10:17.132Z,1.00
2023-04-18T14:12:45.454Z,1.00
2023-04-18T14:15:13.953Z,1.00
2023-04-18T14:17:45.800Z,1.00
2023-04-18T14:20:15.672Z,1.00
2023-04-18T14:22:44.083Z,1.00
2023-04-18T14:25:12.422Z,1.00
2023-04-18T14:27:40.641Z,1.00
2023-04-18T14:30:10.883Z,1.00
2023-04-18T14:32:39.294Z,1.00
2023-04-18T14:35:10.911Z,1.00
2023-04-18T14:37:39.235Z,1.00
2023-04-18T14:40:11.161Z,1.00
2023-04-18T14:42:39.452Z,1.00
2023-04-18T14:45:11.206Z,1.00
2023-04-18T14:47:40.100Z,1.00
2023-04-18T14:50:11.925Z,1.00
2023-04-18T14:52:40.393Z,1.00
2023-04-18T14:55:09.765Z,1.00
2023-04-18T14:57:38.389Z,1.00
2023-04-18T15:00:10.003Z,1.00
2023-04-18T15:02:38.517Z,1.00
2023-04-18T15:05:10.076Z,1.00
2023-04-18T15:07:38.557Z,1.00
2023-04-18T15:10:08.720Z,1.00
2023-04-18T15:12:36.992Z,1.00
2023-04-18T15:15:06.303Z,1.00
2023-04-18T15:17:34.716Z,1.00
2023-04-18T15:20:05.562Z,1.00
2023-04-18T15:22:35.404Z,1.00
2023-04-18T15:25:04.000Z,1.00
2023-04-18T15:27:32.278Z,1.00
2023-04-18T15:30:00.793Z,1.00
2023-04-18T15:32:29.142Z,1.00
2023-04-18T15:34:57.489Z,1.00
2023-04-18T15:37:26.285Z,1.00
2023-04-18T15:39:57.071Z,1.00
2023-04-18T15:42:25.440Z,1.00
2023-04-18T15:44:53.850Z,1.00
2023-04-18T15:47:22.184Z,1.00
2023-04-18T15:49:50.611Z,1.00
2023-04-18T15:52:18.837Z,1.00
2023-04-18T15:54:47.144Z,1.00
2023-04-18T15:57:17.083Z,1.00
2023-04-18T15:59:45.478Z,1.00
2023-04-18T16:02:13.951Z,1.00
2023-04-18T16:04:42.476Z,1.00
2023-04-18T16:07:10.965Z,1.00
2023-04-18T16:09:39.207Z,1.00
2023-04-18T16:12:08.184Z,1.00
2023-04-18T16:14:37.971Z,1.00
2023-04-18T16:17:06.231Z,1.00
